Data for 03/22/2005

Time Sea-Level Adjusted Pressure Absolute Pressure Temperature Relative Humidity Dew Point   
(mb) (inHg) (mb) (inHg) (C) (F) (%) (C) (F)
00:05 1016 30 845 24.95 0.5 32.9 86 -1.6 29.2
00:10 1016 30 845 24.95 0.6 33 86 -1.6 29.1
00:15 1016 30 845 24.95 0.7 33.2 85 -1.6 29.1
00:20 1016 30 845 24.95 0.6 33.2 85 -1.7 29
00:25 1016 30 845 24.95 0.6 33 85 -1.6 29
00:30 1015 29.97 845 24.95 0.5 32.9 86 -1.6 29.1
00:35 1015 29.97 845 24.95 0.4 32.8 86 -1.6 29.2
00:40 1015 29.97 845 24.95 0.3 32.5 87 -1.7 29
00:45 1016 30 845 24.95 0.4 32.7 86 -1.7 29
00:50 1015 29.97 845 24.95 0.3 32.6 86 -1.7 28.9
00:55 1016 30 845 24.95 0.2 32.3 87 -1.8 28.8
01:00 1016 30 845 24.95 0.4 32.7 85 -1.9 28.6
01:05 1016 30 845 24.95 0.2 32.4 88 -1.6 29.1
01:10 1016 30 845 24.95 -0.1 31.8 87 -2 28.4
01:15 1016 30 845 24.95 -0.2 31.6 90 -1.7 28.9
01:20 1016 30 845 24.95 -0.3 31.5 90 -1.8 28.8
01:25 1016 30 845 24.95 -0.2 31.6 91 -1.5 29.2
01:30 1016 30 845 24.95 -0.2 31.7 91 -1.5 29.2
01:35 1016 30 845 24.95 -0.2 31.7 90 -1.7 29
01:40 1016 30 845 24.95 -0.4 31.3 90 -1.8 28.7
01:45 1016 30 845 24.95 -0.5 31.1 90 -1.9 28.6
01:50 1015 29.97 845 24.95 -0.5 31.2 90 -1.9 28.6
01:55 1016 30 845 24.95 -0.5 31.2 90 -2 28.5
02:00 1016 30 845 24.95 -0.3 31.4 90 -1.8 28.7
02:05 1016 30 845 24.95 -0.1 31.7 88 -1.8 28.7
02:10 1016 30 845 24.95 -0 32 88 -1.7 28.9
02:15 1016 30 845 24.95 0 32 88 -1.7 28.9
02:20 1016 30 845 24.95 0.1 32.2 88 -1.7 28.9
02:25 1015 29.97 845 24.95 0.2 32.4 88 -1.6 29.2
02:30 1015 29.97 845 24.95 0.2 32.4 88 -1.6 29.2
02:35 1015 29.97 845 24.95 0 32 88 -1.7 28.9
02:40 1015 29.97 845 24.95 -0.3 31.5 88 -2 28.4
02:45 1015 29.97 845 24.95 -0.3 31.4 89 -2 28.5
02:50 1015 29.97 845 24.95 -0.4 31.4 89 -1.9 28.5
02:55 1015 29.97 845 24.95 -0.5 31.1 90 -2 28.5
03:00 1015 29.97 845 24.95 -0.6 30.9 90 -2.1 28.3
03:05 1015 29.97 844 24.92 -0.9 30.5 91 -2.1 28.2
03:10 1015 29.97 844 24.92 -1 30.2 91 -2.2 28
03:15 1015 29.97 844 24.92 -1 30.2 93 -1.9 28.5
03:20 1015 29.97 844 24.92 -0.9 30.5 91 -2.2 28
03:25 1015 29.97 844 24.92 -1.2 29.8 93 -2.2 28
03:30 1015 29.97 844 24.92 -1.3 29.6 94 -2.2 28
03:35 1015 29.97 844 24.92 -1.1 29.9 94 -1.9 28.5
03:40 1015 29.97 844 24.92 -1.1 30.1 94 -1.8 28.7
03:45 1015 29.97 844 24.92 -1.1 30.1 93 -2 28.4
03:50 1015 29.97 844 24.92 -1.2 29.8 94 -2.1 28.3
03:55 1015 29.97 844 24.92 -1.2 29.8 93 -2.2 28.1
04:00 1015 29.97 844 24.92 -1.2 29.8 93 -2.3 27.9
04:05 1015 29.97 844 24.92 -1.2 29.8 92 -2.3 27.8
04:10 1015 29.97 844 24.92 -1.1 30.1 94 -1.9 28.5
04:15 1015 29.97 844 24.92 -0.8 30.6 94 -1.6 29.1
04:20 1015 29.97 844 24.92 -0.7 30.8 94 -1.6 29.2
04:25 1015 29.97 844 24.92 -0.8 30.5 93 -1.9 28.6
04:30 1015 29.97 844 24.92 -0.8 30.5 92 -1.9 28.5
04:35 1015 29.97 844 24.92 -0.7 30.7 91 -2 28.5
04:40 1015 29.97 844 24.92 -0.8 30.5 92 -2 28.5
04:45 1015 29.97 844 24.92 -1.1 30 92 -2.2 28
04:50 1014 29.94 844 24.92 -1.2 29.9 92 -2.3 27.9
04:55 1014 29.94 844 24.92 -1.2 29.9 92 -2.3 27.8
05:00 1014 29.94 844 24.92 -1.2 29.9 92 -2.3 27.9
05:05 1014 29.94 844 24.92 -1.4 29.5 92 -2.5 27.5
05:10 1014 29.94 843 24.89 -1.4 29.4 92 -2.6 27.4
05:15 1014 29.94 843 24.89 -1.5 29.3 92 -2.6 27.3
05:20 1014 29.94 843 24.89 -1.6 29.2 93 -2.6 27.3
05:25 1014 29.94 843 24.89 -1.4 29.4 91 -2.6 27.2
05:30 1014 29.94 843 24.89 -1.4 29.5 91 -2.6 27.2
05:35 1014 29.94 843 24.89 -1.3 29.6 91 -2.6 27.2
05:40 1014 29.94 843 24.89 -1.2 29.9 90 -2.7 27.2
05:45 1014 29.94 843 24.89 -1.2 29.8 90 -2.7 27.2
05:50 1014 29.94 843 24.89 -1.3 29.7 90 -2.7 27.1
05:55 1014 29.94 843 24.89 -1.2 29.8 89 -2.8 27
06:00 1014 29.94 843 24.89 -1.2 29.9 89 -2.7 27.1
06:05 1014 29.94 843 24.89 -1 30.1 89 -2.6 27.3
06:10 1014 29.94 843 24.89 -0.9 30.4 89 -2.5 27.5
06:15 1014 29.94 843 24.89 -0.8 30.6 89 -2.4 27.8
06:20 1013 29.91 843 24.89 -0.6 31 89 -2.2 28
06:25 1013 29.91 843 24.89 -0.6 31 89 -2.2 28.1
06:30 1013 29.91 843 24.89 -0.5 31.1 88 -2.3 27.8
06:35 1014 29.94 843 24.89 -0.5 31.1 87 -2.4 27.8
06:40 1013 29.91 843 24.89 -0.5 31 86 -2.5 27.4
06:45 1013 29.91 843 24.89 -0.5 31.1 85 -2.7 27.1
06:50 1013 29.91 843 24.89 -0.4 31.3 84 -2.8 27
06:55 1013 29.91 843 24.89 -0.2 31.6 83 -2.8 27
07:00 1013 29.91 843 24.89 -0.2 31.7 83 -2.7 27.2
07:05 1013 29.91 843 24.89 -0.1 31.8 84 -2.6 27.4
07:10 1013 29.91 843 24.89 -0.1 31.8 85 -2.2 28
07:15 1013 29.91 843 24.89 -0.1 31.9 85 -2.2 28
07:20 1013 29.91 843 24.89 -0.1 31.8 88 -1.9 28.6
07:25 1013 29.91 843 24.89 -0 32 88 -1.7 28.9
07:30 1013 29.91 843 24.89 -0.1 31.9 90 -1.5 29.3
07:35 1013 29.91 843 24.89 -0 32 90 -1.4 29.4
07:40 1013 29.91 842 24.86 0.2 32.3 89 -1.4 29.4
07:45 1013 29.91 842 24.86 0.4 32.7 89 -1.3 29.6
07:50 1013 29.91 842 24.86 0.5 32.9 88 -1.2 29.8
07:55 1013 29.91 842 24.86 0.7 33.3 86 -1.3 29.7
08:00 1013 29.91 842 24.86 0.8 33.4 85 -1.4 29.4
08:05 1013 29.91 842 24.86 1 33.9 80 -2.1 28.2
08:10 1013 29.91 842 24.86 1 33.8 78 -2.3 27.8
08:15 1013 29.91 842 24.86 0.9 33.6 79 -2.3 27.8
08:20 1013 29.91 842 24.86 1 33.7 78 -2.4 27.7
08:25 1013 29.91 842 24.86 1.1 34 78 -2.3 27.8
08:30 1013 29.91 842 24.86 1.2 34.1 78 -2.3 27.9
08:35 1013 29.91 842 24.86 1.3 34.3 77 -2.3 27.8
08:40 1013 29.91 842 24.86 1.4 34.6 77 -2.2 28
08:45 1013 29.91 842 24.86 1.5 34.7 78 -2 28.4
08:50 1013 29.91 842 24.86 1.7 35 76 -2 28.3
08:55 1013 29.91 842 24.86 1.8 35.3 76 -1.9 28.6
09:00 1013 29.91 842 24.86 2 35.6 76 -1.8 28.8
09:05 1013 29.91 842 24.86 2 35.7 76 -1.8 28.8
09:10 1013 29.91 842 24.86 2 35.6 76 -1.8 28.8
09:15 1013 29.91 842 24.86 2 35.7 76 -1.7 28.9
09:20 1013 29.91 842 24.86 2.1 35.8 75 -1.8 28.8
09:25 1013 29.91 842 24.86 2.2 36 75 -1.7 29
09:30 1013 29.91 842 24.86 2.4 36.3 75 -1.6 29.1
09:35 1012 29.88 842 24.86 2.4 36.3 75 -1.5 29.3
09:40 1012 29.88 842 24.86 2.7 36.8 75 -1.2 29.8
09:45 1012 29.88 842 24.86 2.8 37 74 -1.4 29.5
09:50 1012 29.88 841 24.83 2.9 37.2 73 -1.4 29.5
09:55 1012 29.88 841 24.83 2.9 37.2 73 -1.5 29.4
10:00 1012 29.88 841 24.83 3 37.5 72 -1.6 29.2
10:05 1012 29.88 841 24.83 3.2 37.8 71 -1.6 29.2
10:10 1012 29.88 841 24.83 3.4 38.2 70 -1.4 29.4
10:15 1012 29.88 841 24.83 3.5 38.3 69 -1.5 29.2
10:20 1012 29.88 841 24.83 3.5 38.3 70 -1.4 29.5
10:25 1012 29.88 841 24.83 3.7 38.6 69 -1.5 29.3
10:30 1012 29.88 841 24.83 3.7 38.7 68 -1.5 29.3
10:35 1012 29.88 841 24.83 3.9 39.1 67 -1.6 29.1
10:40 1012 29.88 841 24.83 4.1 39.5 66 -1.6 29
10:45 1011 29.85 841 24.83 4 39.1 65 -2 28.5
10:50 1011 29.85 841 24.83 4.3 39.7 65 -1.7 28.9
10:55 1011 29.85 841 24.83 4.5 40 63 -1.9 28.6
11:00 1011 29.85 840 24.81 4.4 40 64 -1.8 28.7
11:05 1011 29.85 840 24.81 4.5 40.1 62 -2.1 28.1
11:10 1011 29.85 840 24.81 4.5 40 63 -2 28.4
11:15 1011 29.85 840 24.81 4.6 40.4 61 -2.2 28.1
11:20 1011 29.85 840 24.81 5.1 41.1 61 -1.8 28.8
11:25 1011 29.85 840 24.81 5.2 41.4 60 -1.9 28.6
11:30 1011 29.85 840 24.81 5.4 41.7 60 -1.8 28.8
11:35 1011 29.85 840 24.81 5.2 41.4 60 -1.9 28.6
11:40 1011 29.85 840 24.81 5.5 41.9 60 -1.6 29.1
11:45 1011 29.85 840 24.81 5.5 41.9 61 -1.5 29.3
11:50 1011 29.85 840 24.81 5.6 42 59 -1.8 28.7
11:55 1011 29.85 840 24.81 5.9 42.6 58 -1.8 28.8
12:00 1010 29.83 840 24.81 6.1 42.9 58 -1.6 29.1
12:05 1010 29.83 840 24.81 6.3 43.4 55 -2 28.5
12:10 1010 29.83 839 24.78 6.5 43.7 54 -2.2 28
12:15 1010 29.83 839 24.78 6.7 44 53 -2.2 28.1
12:20 1010 29.83 839 24.78 6.8 44.3 53 -2 28.4
12:25 1010 29.83 839 24.78 7.2 44.9 53 -1.8 28.8
12:30 1010 29.83 839 24.78 7.4 45.3 51 -2 28.4
12:35 1010 29.83 839 24.78 7.6 45.6 49 -2.4 27.8
12:40 1009 29.8 839 24.78 7.6 45.7 50 -2 28.3
12:45 1009 29.8 839 24.78 7.4 45.3 49 -2.7 27.1
12:50 1009 29.8 838 24.75 7.8 46.1 47 -2.7 27.1
12:55 1009 29.8 838 24.75 7.9 46.2 50 -1.8 28.8
13:00 1009 29.8 838 24.75 7.5 45.5 50 -2.3 27.8
13:05 1009 29.8 838 24.75 7.7 45.8 51 -1.7 28.9
13:10 1009 29.8 838 24.75 7.5 45.5 51 -2 28.4
13:15 1009 29.8 838 24.75 7.3 45.2 52 -1.8 28.8
13:20 1009 29.8 838 24.75 7.2 44.9 54 -1.6 29.2
13:25 1009 29.8 838 24.75 7.2 44.9 55 -1.2 29.8
13:30 1009 29.8 838 24.75 7.1 44.9 55 -1.3 29.7
13:35 1009 29.8 838 24.75 6.8 44.3 56 -1.2 29.8
13:40 1009 29.8 838 24.75 6.4 43.4 58 -1.2 29.8
13:45 1009 29.8 838 24.75 6.3 43.4 60 -1 30.3
13:50 1009 29.8 838 24.75 6.5 43.6 60 -0.8 30.5
13:55 1009 29.8 838 24.75 6.2 43.1 61 -0.8 30.5
14:00 1008 29.77 838 24.75 6.4 43.5 60 -0.9 30.5
14:05 1008 29.77 838 24.75 6.6 43.8 59 -0.9 30.3
14:10 1008 29.77 838 24.75 6.6 43.9 54 -1.9 28.5
14:15 1008 29.77 837 24.72 6.9 44.4 56 -1.3 29.6
14:20 1008 29.77 837 24.72 7.1 44.8 52 -2 28.3
14:25 1008 29.77 837 24.72 7.3 45.1 54 -1.4 29.4
14:30 1008 29.77 837 24.72 7.5 45.5 55 -1 30.2
14:35 1008 29.77 837 24.72 7.5 45.5 55 -1 30.2
14:40 1008 29.77 837 24.72 7.4 45.3 55 -1 30.2
14:45 1008 29.77 837 24.72 7.2 44.9 55 -1.2 29.8
14:50 1008 29.77 837 24.72 7.1 44.7 56 -1.2 29.9
14:55 1008 29.77 837 24.72 7.1 44.8 55 -1.3 29.7
15:00 1008 29.77 837 24.72 7.1 44.7 56 -1 30.2
15:05 1008 29.77 837 24.72 6.9 44.4 57 -1.1 30.1
15:10 1008 29.77 837 24.72 6.8 44.2 58 -0.9 30.4
15:15 1008 29.77 837 24.72 6.7 44 61 -0.3 31.4
15:20 1008 29.77 837 24.72 6.4 43.5 62 -0.3 31.5
15:25 1008 29.77 837 24.72 6.3 43.3 62 -0.4 31.3
15:30 1008 29.77 837 24.72 6.2 43.2 63 -0.3 31.5
15:35 1008 29.77 837 24.72 6 42.9 64 -0.3 31.5
15:40 1007 29.74 837 24.72 5.9 42.7 65 -0 31.9
15:45 1007 29.74 836 24.69 6 42.7 65 -0 32
15:50 1007 29.74 837 24.72 6 42.8 65 -0.1 31.8
15:55 1007 29.74 837 24.72 5.9 42.6 67 0.2 32.3
16:00 1007 29.74 836 24.69 5.9 42.6 67 0.2 32.4
16:05 1007 29.74 837 24.72 5.8 42.5 66 0.1 32.1
16:10 1007 29.74 837 24.72 5.9 42.6 66 0 32
16:15 1007 29.74 836 24.69 5.8 42.5 67 0.2 32.3
16:20 1007 29.74 836 24.69 5.8 42.4 68 0.2 32.4
16:25 1007 29.74 836 24.69 5.8 42.4 68 0.3 32.6
16:30 1007 29.74 836 24.69 5.7 42.2 68 0.4 32.6
16:35 1007 29.74 836 24.69 5.5 42 69 0.4 32.7
16:40 1007 29.74 836 24.69 5.6 42.1 70 0.6 33
16:45 1007 29.74 836 24.69 5.5 41.9 70 0.4 32.7
16:50 1007 29.74 836 24.69 5.5 41.9 70 0.4 32.7
16:55 1007 29.74 836 24.69 5.5 42 69 0.4 32.7
17:00 1007 29.74 836 24.69 5.4 41.7 70 0.4 32.7
17:05 1007 29.74 836 24.69 5.3 41.5 70 0.3 32.5
17:10 1007 29.74 836 24.69 5.3 41.6 70 0.3 32.6
17:15 1007 29.74 836 24.69 5.2 41.4 71 0.4 32.8
17:20 1007 29.74 836 24.69 5 41.1 72 0.5 32.9
17:25 1007 29.74 836 24.69 5 40.9 73 0.5 33
17:30 1007 29.74 836 24.69 4.9 40.8 73 0.5 32.9
17:35 1007 29.74 836 24.69 4.8 40.6 74 0.6 33
17:40 1007 29.74 836 24.69 4.7 40.5 75 0.6 33.1
17:45 1007 29.74 836 24.69 4.6 40.3 75 0.6 33
17:50 1007 29.74 836 24.69 4.5 40 76 0.6 33
17:55 1007 29.74 836 24.69 4.4 39.9 76 0.5 32.9
18:00 1007 29.74 836 24.69 4.4 40 75 0.4 32.8
18:05 1007 29.74 836 24.69 4.4 40 75 0.4 32.8
18:10 1007 29.74 836 24.69 4.4 39.9 76 0.5 32.9
18:15 1007 29.74 836 24.69 4.4 39.8 76 0.5 32.9
18:20 1007 29.74 836 24.69 4.3 39.7 76 0.5 32.8
18:25 1007 29.74 836 24.69 4.3 39.7 76 0.5 32.9
18:30 1007 29.74 836 24.69 4.2 39.6 77 0.5 32.9
18:35 1007 29.74 836 24.69 4.2 39.5 78 0.7 33.2
18:40 1007 29.74 836 24.69 4.1 39.4 78 0.6 33.1
18:45 1007 29.74 836 24.69 4.1 39.4 78 0.7 33.3
18:50 1007 29.74 836 24.69 4.1 39.3 78 0.7 33.2
18:55 1007 29.74 836 24.69 4 39.3 79 0.7 33.2
19:00 1007 29.74 836 24.69 4 39.2 79 0.7 33.2
19:05 1007 29.74 836 24.69 4 39.3 79 0.7 33.3
19:10 1007 29.74 836 24.69 4 39.2 79 0.7 33.3
19:15 1007 29.74 836 24.69 4.1 39.3 79 0.7 33.2
19:20 1006 29.71 836 24.69 4.1 39.4 79 0.7 33.2
19:25 1007 29.74 836 24.69 4.1 39.4 79 0.7 33.3
19:30 1006 29.71 836 24.69 4.1 39.3 79 0.7 33.3
19:35 1006 29.71 836 24.69 4.1 39.3 78 0.6 33.2
19:40 1006 29.71 836 24.69 4.1 39.4 78 0.6 33.1
19:45 1006 29.71 836 24.69 4.1 39.5 78 0.6 33.1
19:50 1006 29.71 836 24.69 4.1 39.4 78 0.6 33
19:55 1006 29.71 836 24.69 4.2 39.5 77 0.5 32.9
20:00 1006 29.71 836 24.69 4.2 39.5 77 0.5 32.8
20:05 1006 29.71 836 24.69 4.2 39.5 77 0.5 32.9
20:10 1006 29.71 836 24.69 4.2 39.6 77 0.5 33
20:15 1006 29.71 836 24.69 4.2 39.5 77 0.4 32.8
20:20 1006 29.71 836 24.69 4.2 39.5 77 0.4 32.8
20:25 1006 29.71 836 24.69 4.2 39.6 76 0.4 32.7
20:30 1006 29.71 836 24.69 4.2 39.5 77 0.4 32.8
20:35 1006 29.71 836 24.69 4.2 39.5 77 0.5 32.9
20:40 1006 29.71 836 24.69 4.2 39.5 77 0.4 32.8
20:45 1006 29.71 836 24.69 4.2 39.5 77 0.5 33
20:50 1006 29.71 836 24.69 4.1 39.4 77 0.4 32.8
20:55 1006 29.71 836 24.69 4.1 39.4 77 0.4 32.7
21:00 1006 29.71 836 24.69 4.1 39.4 77 0.5 32.8
21:05 1006 29.71 836 24.69 4 39.2 77 0.4 32.8
21:10 1007 29.74 836 24.69 4 39.2 77 0.4 32.8
21:15 1007 29.74 836 24.69 3.8 38.8 78 0.2 32.4
21:20 1006 29.71 836 24.69 2.9 37.1 81 -0 31.9
21:25 1006 29.71 836 24.69 2.3 36.2 82 -0.4 31.3
21:30 1006 29.71 836 24.69 1.8 35.2 85 -0.5 31.1
21:35 1006 29.71 836 24.69 1.5 34.7 88 -0.4 31.4
21:40 1007 29.74 836 24.69 1.4 34.6 91 0.1 32.1
21:45 1007 29.74 836 24.69 1.4 34.6 92 0.2 32.4
21:50 1007 29.74 836 24.69 1.2 34.2 92 0.1 32.2
21:55 1007 29.74 836 24.69 1 33.7 93 -0 32
22:00 1007 29.74 836 24.69 0.8 33.4 94 -0.1 31.8
22:05 1007 29.74 836 24.69 0.7 33.3 94 -0.2 31.7
22:10 1007 29.74 836 24.69 0.6 33.1 94 -0.3 31.4
22:15 1007 29.74 836 24.69 0.5 32.8 93 -0.5 31.1
22:20 1007 29.74 836 24.69 0.4 32.7 92 -0.8 30.6
22:25 1007 29.74 836 24.69 0.3 32.6 91 -0.9 30.3
22:30 1007 29.74 836 24.69 0.3 32.5 92 -0.9 30.3
22:35 1007 29.74 836 24.69 0.2 32.4 92 -0.8 30.5
22:40 1007 29.74 836 24.69 0.3 32.5 92 -0.9 30.4
22:45 1007 29.74 836 24.69 0.1 32.2 92 -1 30.3
22:50 1007 29.74 836 24.69 0.1 32.3 92 -1 30.1
22:55 1007 29.74 836 24.69 0.2 32.3 91 -1.1 30
23:00 1007 29.74 836 24.69 0.2 32.3 91 -1.1 29.9
23:05 1007 29.74 836 24.69 0.1 32.1 92 -1.1 30.1
23:10 1007 29.74 836 24.69 -0 32 93 -1.1 30.1
23:15 1007 29.74 836 24.69 -0.2 31.6 94 -1.1 30
23:20 1007 29.74 836 24.69 -0.4 31.3 94 -1.2 29.8
23:25 1007 29.74 836 24.69 -0.6 31 95 -1.3 29.6
23:30 1007 29.74 836 24.69 -0.6 30.9 94 -1.5 29.4
23:35 1007 29.74 836 24.69 -0.9 30.4 94 -1.7 28.9
23:40 1007 29.74 836 24.69 -1 30.1 94 -1.9 28.6
23:45 1007 29.74 836 24.69 -1.3 29.6 94 -2.1 28.2
23:50 1007 29.74 836 24.69 -1.4 29.4 95 -2.2 28.1
23:55 1007 29.74 836 24.69 -1.5 29.3 95 -2.2 28.1
24:00 1007 29.74 836 24.69 -1.6 29.1 95 -2.4 27.8